»·PEaware :: N258CB KSLE-KPDX

N258CB :: KSLE-KPDX

FLIGHT INFORMATION

Flight Status: Arrived
Operator: Privately registered:
United States
More flights under this callsign
Pilot: Eric W. (14379)
Aircraft: CESSNA 208 CARAVAN
(C208)
More flights by this aircraft type
Origin: KSLE McNary
United States
Destination: KPDX Portland Intl
United States
More flights between these airports :: More routes between these airports
Route: +UBG
File this flight plan on PilotEdge
Remarks:
Altitude:
(Current/Filed)
7,000ft
Speed:
(Current/Filed)
180kts
Departed: 29-Oct-20 05:04 PM
Arrived: 29-Oct-20 05:30 PM
Distance/Time
Traveled:
44nm/0:26
Distance/Time
To Go:
Arrived

Flight Plot

Page will automatically refresh every two minutes.

Flight plan parsing failed; only flown route is shown


Map Options




Map Legend


Flown Route
Filed Route
Departure Airport
Arrival Airport
Navaid (VOR, NDB)
Fix

Horizontal Profiles

Position Reports

Time Latitude Longitude Heading Altitude Ground
Speed
29-Oct-20 16:38 44.908842 -123.006525 7 207ft 0kts
29-Oct-20 16:39 44.908842 -123.006525 7 207ft 0kts
29-Oct-20 16:40 44.908842 -123.006525 7 207ft 0kts
29-Oct-20 16:41 44.908842 -123.006525 7 207ft 0kts
29-Oct-20 16:42 44.908842 -123.006525 7 207ft 0kts
29-Oct-20 16:43 44.908842 -123.006525 7 207ft 0kts
29-Oct-20 16:44 44.908842 -123.006525 7 207ft 0kts
29-Oct-20 16:45 44.908842 -123.006525 7 207ft 0kts
29-Oct-20 16:46 44.908842 -123.006525 7 207ft 0kts
29-Oct-20 16:47 44.908842 -123.006525 7 207ft 0kts
29-Oct-20 16:48 44.908842 -123.006525 7 207ft 0kts
29-Oct-20 16:49 44.908842 -123.006525 7 207ft 0kts
29-Oct-20 16:50 44.908842 -123.006525 7 207ft 0kts
29-Oct-20 16:51 44.908842 -123.006525 7 207ft 0kts
29-Oct-20 16:52 44.908842 -123.006525 7 207ft 0kts
29-Oct-20 16:53 44.908842 -123.006525 7 207ft 0kts
29-Oct-20 16:54 44.908842 -123.006525 7 207ft 0kts
29-Oct-20 16:55 44.908891 -123.006144 113 208ft 7kts
29-Oct-20 16:56 44.904816 -123.005564 181 217ft 23kts
29-Oct-20 16:57 44.902832 -123.005187 134 219ft 0kts
29-Oct-20 16:58 44.902832 -123.005187 134 219ft 0kts
29-Oct-20 16:59 44.902832 -123.005187 134 219ft 0kts
29-Oct-20 17:00 44.902832 -123.005187 134 219ft 0kts
29-Oct-20 17:01 44.902513 -123.004490 137 220ft 0kts
29-Oct-20 17:02 44.902123 -123.003786 87 218ft 8kts
29-Oct-20 17:03 44.920039 -123.002884 5 765ft 100kts
29-Oct-20 17:04 44.947332 -123.003659 349 2179ft 102kts
29-Oct-20 17:05 44.977433 -122.999386 5 3527ft 111kts
29-Oct-20 17:06 45.009956 -122.996611 358 4791ft 122kts
29-Oct-20 17:07 45.045044 -122.995296 358 6022ft 129kts
29-Oct-20 17:08 45.082626 -122.993066 357 7000ft 150kts
29-Oct-20 17:09 45.128802 -122.990532 358 7091ft 175kts
29-Oct-20 17:10 45.177752 -122.987851 358 7091ft 177kts
29-Oct-20 17:11 45.226973 -122.985137 357 7093ft 177kts
29-Oct-20 17:12 45.276469 -122.982391 357 7096ft 178kts
29-Oct-20 17:13 45.325855 -122.979663 357 7100ft 178kts
29-Oct-20 17:14 45.374569 -122.965192 11 7089ft 181kts
29-Oct-20 17:15 45.422797 -122.944896 11 7101ft 182kts
29-Oct-20 17:16 45.471099 -122.924411 11 7102ft 182kts
29-Oct-20 17:17 45.519547 -122.912934 1 6815ft 171kts
29-Oct-20 17:18 45.566475 -122.913771 351 5879ft 168kts
29-Oct-20 17:19 45.612302 -122.919152 351 4861ft 159kts
29-Oct-20 17:20 45.653143 -122.925773 351 3727ft 153kts
29-Oct-20 17:21 45.696684 -122.931626 25 3611ft 161kts
29-Oct-20 17:22 45.701234 -122.872571 107 3604ft 161kts
29-Oct-20 17:23 45.680389 -122.816460 119 3461ft 159kts
29-Oct-20 17:24 45.658631 -122.760223 118 2610ft 167kts
29-Oct-20 17:25 45.637758 -122.706411 118 1780ft 125kts
29-Oct-20 17:26 45.622544 -122.666372 118 1206ft 121kts
29-Oct-20 17:27 45.607748 -122.628869 118 490ft 95kts
29-Oct-20 17:28 45.595816 -122.598156 119 48ft 81kts
29-Oct-20 17:29 45.590320 -122.585749 278 28ft 13kts
29-Oct-20 17:30 45.589501 -122.585198 118 27ft 17kts
29-Oct-20 17:31 45.586903 -122.578574 122 28ft 12kts
29-Oct-20 17:32 45.585467 -122.579075 223 27ft 3kts
29-Oct-20 17:33 45.585256 -122.578705 116 27ft 0kts
29-Oct-20 17:34 45.585256 -122.578705 116 27ft 0kts

Navigation Log

Ident Type
Flight plan parsing failed, navigation log unavailable